createdAt,value
2018-09-30T00:00:13.608Z,11.97
2018-09-30T00:02:41.583Z,11.93
2018-09-30T00:05:09.618Z,11.88
2018-09-30T00:07:37.503Z,11.99
2018-09-30T00:10:05.331Z,11.99
2018-09-30T00:12:33.064Z,11.95
2018-09-30T00:15:00.867Z,11.74
2018-09-30T00:17:28.506Z,11.94
2018-09-30T00:19:56.266Z,11.78
2018-09-30T00:22:23.941Z,11.78
2018-09-30T00:25:07.552Z,11.75
2018-09-30T00:27:35.190Z,11.59
2018-09-30T00:30:02.906Z,11.63
2018-09-30T00:32:30.596Z,11.58
2018-09-30T00:34:58.284Z,11.52
2018-09-30T00:37:25.938Z,11.66
2018-09-30T00:39:53.775Z,11.68
2018-09-30T00:42:22.218Z,11.82
2018-09-30T00:44:49.845Z,11.53
2018-09-30T00:47:17.465Z,11.51
2018-09-30T00:49:45.137Z,11.24
2018-09-30T00:52:12.993Z,11.40
2018-09-30T00:54:40.760Z,11.31
2018-09-30T00:57:08.503Z,11.49
2018-09-30T00:59:36.211Z,11.39
2018-09-30T01:02:03.999Z,11.50
2018-09-30T01:04:31.729Z,11.44
2018-09-30T01:06:59.442Z,11.41
2018-09-30T01:09:27.083Z,11.13
2018-09-30T01:11:54.837Z,11.33
2018-09-30T01:14:22.526Z,11.09
2018-09-30T01:16:50.890Z,10.98
2018-09-30T01:19:18.486Z,11.06
2018-09-30T01:21:46.184Z,11.18
2018-09-30T01:24:13.834Z,11.00
2018-09-30T01:26:41.501Z,10.77
2018-09-30T01:29:09.370Z,10.63
2018-09-30T01:31:37.018Z,10.64
2018-09-30T01:34:04.720Z,10.70
2018-09-30T01:36:32.339Z,10.66
2018-09-30T01:39:00.033Z,10.33
2018-09-30T01:41:27.657Z,10.45
2018-09-30T01:43:55.281Z,10.66
2018-09-30T01:46:23.189Z,10.74
2018-09-30T01:48:50.868Z,10.53
2018-09-30T01:51:18.491Z,10.73
2018-09-30T01:53:46.162Z,10.51
2018-09-30T01:56:13.800Z,10.48
2018-09-30T01:58:41.508Z,10.41
2018-09-30T02:01:09.135Z,10.57
2018-09-30T02:03:36.837Z,10.55
2018-09-30T02:06:04.488Z,10.53
2018-09-30T02:08:32.101Z,10.56
2018-09-30T02:10:59.801Z,10.42
2018-09-30T02:13:27.398Z,10.10
2018-09-30T02:15:55.056Z,10.29
2018-09-30T02:18:22.689Z,10.20
2018-09-30T02:20:50.361Z,9.96
2018-09-30T02:23:18.026Z,9.99
2018-09-30T02:25:45.643Z,9.97
2018-09-30T02:28:13.313Z,9.93
2018-09-30T02:30:41.040Z,9.87
2018-09-30T02:33:08.719Z,10.00
2018-09-30T02:35:36.372Z,9.96
2018-09-30T02:38:04.051Z,10.05
2018-09-30T02:40:31.861Z,9.93
2018-09-30T02:42:59.551Z,10.01
2018-09-30T02:45:27.167Z,10.25
2018-09-30T02:47:54.854Z,10.16
2018-09-30T02:50:22.600Z,10.05
2018-09-30T02:52:50.218Z,10.13
2018-09-30T02:55:17.923Z,10.15
2018-09-30T02:57:45.594Z,10.32
2018-09-30T03:00:13.239Z,10.07
2018-09-30T03:02:40.902Z,10.12
2018-09-30T03:05:08.553Z,10.23
2018-09-30T03:07:51.252Z,10.19
2018-09-30T03:10:19.019Z,9.96
2018-09-30T03:12:46.686Z,10.37
2018-09-30T03:15:14.309Z,10.26
2018-09-30T03:17:42.047Z,10.37
2018-09-30T03:20:09.686Z,10.42
2018-09-30T03:22:37.377Z,10.57
2018-09-30T03:25:05.017Z,10.34
2018-09-30T03:27:32.706Z,10.16
2018-09-30T03:30:00.389Z,10.19
2018-09-30T03:32:28.034Z,10.39
2018-09-30T03:34:56.851Z,10.21
2018-09-30T03:37:24.471Z,10.48
2018-09-30T03:39:52.101Z,10.16
2018-09-30T03:42:20.281Z,10.32
2018-09-30T03:44:47.906Z,10.34
2018-09-30T03:47:15.563Z,10.01
2018-09-30T03:49:43.227Z,10.16
2018-09-30T03:52:10.860Z,10.14
2018-09-30T03:54:38.486Z,10.26
2018-09-30T03:57:06.142Z,9.88
2018-09-30T03:59:33.797Z,9.88
2018-09-30T04:02:01.473Z,10.01
2018-09-30T04:04:29.084Z,10.05
2018-09-30T04:06:56.912Z,10.19
2018-09-30T04:09:24.621Z,9.84
2018-09-30T04:11:52.185Z,10.14
2018-09-30T04:14:20.321Z,10.06
2018-09-30T04:16:48.005Z,9.80
2018-09-30T04:19:15.678Z,9.84
2018-09-30T04:21:43.329Z,9.72
2018-09-30T04:24:11.032Z,9.84
2018-09-30T04:26:38.774Z,9.83
2018-09-30T04:29:06.485Z,9.63
2018-09-30T04:31:34.160Z,9.91
2018-09-30T04:34:01.849Z,9.92
2018-09-30T04:36:29.531Z,10.14
2018-09-30T04:38:57.210Z,10.01
2018-09-30T04:41:24.889Z,9.96
2018-09-30T04:43:52.475Z,9.98
2018-09-30T04:46:20.265Z,10.04
2018-09-30T04:48:47.998Z,10.08
2018-09-30T04:51:15.649Z,10.24
2018-09-30T04:53:43.411Z,10.09
2018-09-30T04:56:11.323Z,10.14
2018-09-30T04:58:38.982Z,10.02
2018-09-30T05:01:06.643Z,10.11
2018-09-30T05:03:34.299Z,10.11
2018-09-30T05:06:01.982Z,10.27
2018-09-30T05:08:29.734Z,10.34
2018-09-30T05:10:57.320Z,10.34
2018-09-30T05:13:24.938Z,10.23
2018-09-30T05:15:52.666Z,10.18
2018-09-30T05:18:20.362Z,10.09
2018-09-30T05:20:48.029Z,10.32
2018-09-30T05:23:15.674Z,10.36
2018-09-30T05:25:43.354Z,10.12
2018-09-30T05:28:10.970Z,10.25
2018-09-30T05:30:39.362Z,10.16
2018-09-30T05:33:06.977Z,10.16
2018-09-30T05:35:34.713Z,10.41
2018-09-30T05:38:02.387Z,10.43
2018-09-30T05:40:30.141Z,10.29
2018-09-30T05:42:57.764Z,10.34
2018-09-30T05:45:25.503Z,10.47
2018-09-30T05:47:53.194Z,10.47
2018-09-30T05:50:20.882Z,10.55
2018-09-30T05:52:48.592Z,10.51
2018-09-30T05:55:16.351Z,10.34
2018-09-30T05:57:44.256Z,10.31
2018-09-30T06:00:11.956Z,10.00
2018-09-30T06:02:39.631Z,10.02
2018-09-30T06:05:07.271Z,10.12
2018-09-30T06:07:35.025Z,10.23
2018-09-30T06:10:02.699Z,10.20
2018-09-30T06:12:30.329Z,10.14
2018-09-30T06:14:57.999Z,9.93
2018-09-30T06:17:25.588Z,9.88
2018-09-30T06:19:53.249Z,10.04
2018-09-30T06:22:20.863Z,9.93
2018-09-30T06:24:48.732Z,10.16
2018-09-30T06:27:16.348Z,10.22
2018-09-30T06:29:43.951Z,10.23
2018-09-30T06:32:11.774Z,10.35
2018-09-30T06:34:39.443Z,10.29
2018-09-30T06:37:07.177Z,10.34
2018-09-30T06:39:34.885Z,10.49
2018-09-30T06:42:02.745Z,10.59
2018-09-30T06:44:30.422Z,10.72
2018-09-30T06:46:58.125Z,10.82
2018-09-30T06:49:25.811Z,10.72
2018-09-30T06:51:53.502Z,10.91
2018-09-30T06:54:21.099Z,10.65
2018-09-30T06:56:48.742Z,11.01
2018-09-30T06:59:16.430Z,10.98
2018-09-30T07:01:44.076Z,11.10
2018-09-30T07:04:11.716Z,11.17
2018-09-30T07:06:39.354Z,11.18
2018-09-30T07:09:07.128Z,11.22
2018-09-30T07:11:34.732Z,11.23
2018-09-30T07:14:02.350Z,11.12
2018-09-30T07:16:30.027Z,11.27
2018-09-30T07:18:57.704Z,11.36
2018-09-30T07:21:25.466Z,11.45
2018-09-30T07:23:53.174Z,11.56
2018-09-30T07:26:20.828Z,11.54
2018-09-30T07:28:48.439Z,11.58
2018-09-30T07:31:16.074Z,11.43
2018-09-30T07:33:43.807Z,11.53
2018-09-30T07:36:11.428Z,11.59
2018-09-30T07:38:39.265Z,11.63
2018-09-30T07:41:07.456Z,11.61
2018-09-30T07:43:35.232Z,11.72
2018-09-30T07:46:03.780Z,11.79
2018-09-30T07:48:31.559Z,11.90
2018-09-30T07:50:59.589Z,11.96
2018-09-30T07:53:27.746Z,11.87
2018-09-30T07:55:55.656Z,11.92
2018-09-30T07:58:24.468Z,11.96
2018-09-30T08:00:52.326Z,12.08
2018-09-30T08:03:21.022Z,12.17
2018-09-30T08:05:49.001Z,12.25
2018-09-30T08:08:17.047Z,12.22
2018-09-30T08:10:45.363Z,12.25
2018-09-30T08:13:13.492Z,12.42
2018-09-30T08:15:41.596Z,12.39
2018-09-30T08:18:09.619Z,12.38
2018-09-30T08:20:37.548Z,12.56
2018-09-30T08:23:05.662Z,12.63
2018-09-30T08:25:33.694Z,12.69
2018-09-30T08:28:01.695Z,12.63
2018-09-30T08:30:30.438Z,12.73
2018-09-30T08:32:58.090Z,12.91
2018-09-30T08:35:25.814Z,12.91
2018-09-30T08:37:53.438Z,12.91
2018-09-30T08:40:21.170Z,13.02
2018-09-30T08:42:48.845Z,13.16
2018-09-30T08:45:16.496Z,13.17
2018-09-30T08:47:44.238Z,13.24
2018-09-30T08:50:12.087Z,13.22
2018-09-30T08:52:39.594Z,13.37
2018-09-30T08:55:07.234Z,13.42
2018-09-30T08:57:34.756Z,13.44
2018-09-30T09:00:02.304Z,13.55
2018-09-30T09:02:29.858Z,13.60
2018-09-30T09:04:57.440Z,13.72
2018-09-30T09:07:24.956Z,13.67
2018-09-30T09:09:52.570Z,13.71
2018-09-30T09:12:20.133Z,13.84
2018-09-30T09:14:47.661Z,13.77
2018-09-30T09:17:15.176Z,13.81
2018-09-30T09:19:42.768Z,13.97
2018-09-30T09:22:10.371Z,14.04
2018-09-30T09:24:37.896Z,13.96
2018-09-30T09:27:05.528Z,14.02
2018-09-30T09:29:33.055Z,14.03
2018-09-30T09:32:00.621Z,13.93
2018-09-30T09:34:28.130Z,14.06
2018-09-30T09:36:55.724Z,14.00
2018-09-30T09:39:23.249Z,14.18
2018-09-30T09:41:50.786Z,14.22
2018-09-30T09:44:18.356Z,14.36
2018-09-30T09:46:47.085Z,14.21
2018-09-30T09:49:14.615Z,14.40
2018-09-30T09:51:42.178Z,14.42
2018-09-30T09:54:09.736Z,14.44
2018-09-30T09:56:37.297Z,14.29
2018-09-30T09:59:04.944Z,14.39
2018-09-30T10:01:32.471Z,14.31
2018-09-30T10:04:00.027Z,14.50
2018-09-30T10:06:27.545Z,14.44
2018-09-30T10:08:55.139Z,14.71
2018-09-30T10:11:22.722Z,14.81
2018-09-30T10:13:50.229Z,14.83
2018-09-30T10:16:17.780Z,14.74
2018-09-30T10:18:45.460Z,14.84
2018-09-30T10:21:13.087Z,15.03
2018-09-30T10:23:40.805Z,14.92
2018-09-30T10:26:08.436Z,15.04
2018-09-30T10:28:36.344Z,15.16
2018-09-30T10:31:03.937Z,15.22
2018-09-30T10:33:31.845Z,15.01
2018-09-30T10:35:59.515Z,15.20
2018-09-30T10:38:27.420Z,15.27
2018-09-30T10:40:55.107Z,15.40
2018-09-30T10:43:22.896Z,15.36
2018-09-30T10:45:50.491Z,15.35
2018-09-30T10:48:18.063Z,15.34
2018-09-30T10:50:45.887Z,15.20
2018-09-30T10:53:13.581Z,15.38
2018-09-30T10:55:41.523Z,15.50
2018-09-30T10:58:09.185Z,15.30
2018-09-30T11:00:36.939Z,15.02
2018-09-30T11:03:04.754Z,15.33
2018-09-30T11:05:32.364Z,15.34
2018-09-30T11:07:59.987Z,15.45
2018-09-30T11:10:27.649Z,15.58
2018-09-30T11:12:55.224Z,15.59
2018-09-30T11:15:22.924Z,15.73
2018-09-30T11:17:50.630Z,15.63
2018-09-30T11:20:18.379Z,15.78
2018-09-30T11:22:46.072Z,15.87
2018-09-30T11:25:13.999Z,15.88
2018-09-30T11:27:41.702Z,15.89
2018-09-30T11:30:09.677Z,16.04
2018-09-30T11:32:37.425Z,16.17
2018-09-30T11:35:05.239Z,16.21
2018-09-30T11:37:32.997Z,16.22
2018-09-30T11:40:00.748Z,16.26
2018-09-30T11:42:28.468Z,16.40
2018-09-30T11:44:56.262Z,16.10
2018-09-30T11:47:23.989Z,15.96
2018-09-30T11:49:51.740Z,16.27
2018-09-30T11:52:20.194Z,16.19
2018-09-30T11:54:47.898Z,16.24
2018-09-30T11:57:15.703Z,16.37
2018-09-30T11:59:43.387Z,16.21
2018-09-30T12:02:11.216Z,16.45
2018-09-30T12:04:39.008Z,16.42
2018-09-30T12:07:06.827Z,16.53
2018-09-30T12:09:34.571Z,16.66
2018-09-30T12:12:02.226Z,16.54
2018-09-30T12:14:29.940Z,16.64
2018-09-30T12:16:57.593Z,16.53
2018-09-30T12:19:25.394Z,16.73
2018-09-30T12:21:53.086Z,16.91
2018-09-30T12:24:20.835Z,16.98
2018-09-30T12:26:49.929Z,17.05
2018-09-30T12:29:18.809Z,17.07
2018-09-30T12:31:46.729Z,17.04
2018-09-30T12:34:14.260Z,17.03
2018-09-30T12:36:41.817Z,17.05
2018-09-30T12:39:09.389Z,17.05
2018-09-30T12:41:37.132Z,16.94
2018-09-30T12:44:04.866Z,16.81
2018-09-30T12:46:32.433Z,16.78
2018-09-30T12:48:59.992Z,17.01
2018-09-30T12:51:27.576Z,16.73
2018-09-30T12:53:55.165Z,16.91
2018-09-30T12:56:22.666Z,16.99
2018-09-30T12:58:50.204Z,17.27
2018-09-30T13:01:17.777Z,17.25
2018-09-30T13:03:45.298Z,17.31
2018-09-30T13:06:12.856Z,17.12
2018-09-30T13:08:40.429Z,17.16
2018-09-30T13:11:07.936Z,17.30
2018-09-30T13:13:35.493Z,17.44
2018-09-30T13:16:03.093Z,17.56
2018-09-30T13:18:30.610Z,17.51
2018-09-30T13:20:58.251Z,17.62
2018-09-30T13:23:25.789Z,17.63
2018-09-30T13:25:53.399Z,17.73
2018-09-30T13:28:20.936Z,17.48
2018-09-30T13:30:48.456Z,17.52
2018-09-30T13:33:16.029Z,17.67
2018-09-30T13:35:43.589Z,17.66
2018-09-30T13:38:11.164Z,17.51
2018-09-30T13:40:38.792Z,17.57
2018-09-30T13:43:06.295Z,17.67
2018-09-30T13:45:33.819Z,17.75
2018-09-30T13:48:01.600Z,17.89
2018-09-30T13:50:29.139Z,17.85
2018-09-30T13:52:56.699Z,17.68
2018-09-30T13:55:24.279Z,17.78
2018-09-30T13:57:51.849Z,17.74
2018-09-30T14:00:20.011Z,17.82
2018-09-30T14:02:47.572Z,17.89
2018-09-30T14:05:15.193Z,17.69
2018-09-30T14:07:42.758Z,17.68
2018-09-30T14:10:10.262Z,17.75
2018-09-30T14:12:37.785Z,17.71
2018-09-30T14:15:05.378Z,17.55
2018-09-30T14:17:32.981Z,17.58
2018-09-30T14:20:00.577Z,17.79
2018-09-30T14:22:28.096Z,17.70
2018-09-30T14:24:55.684Z,17.46
2018-09-30T14:27:23.445Z,17.54
2018-09-30T14:29:50.888Z,17.38
2018-09-30T14:32:18.581Z,17.78
2018-09-30T14:34:46.097Z,17.78
2018-09-30T14:37:13.666Z,17.98
2018-09-30T14:39:41.186Z,17.91
2018-09-30T14:42:08.708Z,17.95
2018-09-30T14:44:36.298Z,17.75
2018-09-30T14:47:03.865Z,17.53
2018-09-30T14:49:31.438Z,17.63
2018-09-30T14:51:59.015Z,17.55
2018-09-30T14:54:26.658Z,17.58
2018-09-30T14:56:54.379Z,17.77
2018-09-30T14:59:21.909Z,17.88
2018-09-30T15:01:49.418Z,17.94
2018-09-30T15:04:17.064Z,18.02
2018-09-30T15:06:44.601Z,17.98
2018-09-30T15:09:12.191Z,17.73
2018-09-30T15:11:39.700Z,18.15
2018-09-30T15:14:07.274Z,17.73
2018-09-30T15:16:34.797Z,18.02
2018-09-30T15:19:02.399Z,18.09
2018-09-30T15:21:29.965Z,18.12
2018-09-30T15:23:57.514Z,17.83
2018-09-30T15:26:25.038Z,17.88
2018-09-30T15:28:52.551Z,17.80
2018-09-30T15:31:20.118Z,17.68
2018-09-30T15:33:47.680Z,17.88
2018-09-30T15:36:15.213Z,17.75
2018-09-30T15:38:42.773Z,17.80
2018-09-30T15:41:10.300Z,17.72
2018-09-30T15:43:37.835Z,17.36
2018-09-30T15:46:05.407Z,17.42
2018-09-30T15:48:33.014Z,17.03
2018-09-30T15:51:00.678Z,17.22
2018-09-30T15:53:28.201Z,17.42
2018-09-30T15:55:55.773Z,17.21
2018-09-30T15:58:23.336Z,17.37
2018-09-30T16:00:51.117Z,17.26
2018-09-30T16:03:18.789Z,17.40
2018-09-30T16:05:46.338Z,17.44
2018-09-30T16:08:13.901Z,17.02
2018-09-30T16:10:41.498Z,17.12
2018-09-30T16:13:09.081Z,17.18
2018-09-30T16:15:36.602Z,16.93
2018-09-30T16:18:04.179Z,17.13
2018-09-30T16:20:31.724Z,17.13
2018-09-30T16:22:59.577Z,16.97
2018-09-30T16:25:27.177Z,17.15
2018-09-30T16:27:54.721Z,17.06
2018-09-30T16:30:22.304Z,16.85
2018-09-30T16:32:49.824Z,16.84
2018-09-30T16:35:17.477Z,16.66
2018-09-30T16:37:45.009Z,16.53
2018-09-30T16:40:12.555Z,16.58
2018-09-30T16:42:40.082Z,16.35
2018-09-30T16:45:07.659Z,16.47
2018-09-30T16:47:35.192Z,16.27
2018-09-30T16:50:02.796Z,16.24
2018-09-30T16:52:30.386Z,16.38
2018-09-30T16:54:57.950Z,16.38
2018-09-30T16:57:25.507Z,16.10
2018-09-30T16:59:53.079Z,15.94
2018-09-30T17:02:21.379Z,15.76
2018-09-30T17:04:48.958Z,15.44
2018-09-30T17:07:16.534Z,15.59
2018-09-30T17:09:44.140Z,15.52
2018-09-30T17:12:11.642Z,15.49
2018-09-30T17:14:39.226Z,15.43
2018-09-30T17:17:06.761Z,15.35
2018-09-30T17:19:34.360Z,15.67
2018-09-30T17:22:01.877Z,15.44
2018-09-30T17:24:29.438Z,15.03
2018-09-30T17:26:56.979Z,14.98
2018-09-30T17:29:24.544Z,15.21
2018-09-30T17:31:52.058Z,15.02
2018-09-30T17:34:20.383Z,15.16
2018-09-30T17:36:47.908Z,15.14
2018-09-30T17:39:15.580Z,15.01
2018-09-30T17:41:43.144Z,15.06
2018-09-30T17:44:10.865Z,14.77
2018-09-30T17:46:38.611Z,14.97
2018-09-30T17:49:06.571Z,14.86
2018-09-30T17:51:34.171Z,14.69
2018-09-30T17:54:02.139Z,14.67
2018-09-30T17:56:29.894Z,14.60
2018-09-30T17:58:57.507Z,14.38
2018-09-30T18:01:25.136Z,14.53
2018-09-30T18:03:52.835Z,14.63
2018-09-30T18:06:20.556Z,14.30
2018-09-30T18:08:49.548Z,14.15
2018-09-30T18:11:17.285Z,14.21
2018-09-30T18:13:45.144Z,13.89
2018-09-30T18:16:12.893Z,13.59
2018-09-30T18:18:40.527Z,13.74
2018-09-30T18:21:08.244Z,13.49
2018-09-30T18:23:35.974Z,13.54
2018-09-30T18:26:03.510Z,13.44
2018-09-30T18:28:31.197Z,13.52
2018-09-30T18:30:58.769Z,13.38
2018-09-30T18:33:26.419Z,13.41
2018-09-30T18:35:54.035Z,13.47
2018-09-30T18:38:21.753Z,13.47
2018-09-30T18:40:49.388Z,13.29
2018-09-30T18:43:17.063Z,13.39
2018-09-30T18:45:44.849Z,13.17
2018-09-30T18:48:12.522Z,13.10
2018-09-30T18:50:40.437Z,13.31
2018-09-30T18:53:08.069Z,13.45
2018-09-30T18:55:35.766Z,13.47
2018-09-30T18:58:03.429Z,13.55
2018-09-30T19:00:31.143Z,13.41
2018-09-30T19:02:58.882Z,13.38
2018-09-30T19:05:26.721Z,13.31
2018-09-30T19:07:54.502Z,13.20
2018-09-30T19:10:22.192Z,13.25
2018-09-30T19:12:49.909Z,13.05
2018-09-30T19:15:17.570Z,12.95
2018-09-30T19:17:45.636Z,12.87
2018-09-30T19:20:15.984Z,12.89
2018-09-30T19:22:43.798Z,12.66
2018-09-30T19:25:12.018Z,12.76
2018-09-30T19:27:40.355Z,12.98
2018-09-30T19:32:51.785Z,13.06
2018-09-30T19:35:20.608Z,13.16
2018-09-30T19:37:48.589Z,13.07
2018-09-30T19:40:17.375Z,13.07
2018-09-30T19:42:45.168Z,13.22
2018-09-30T19:45:12.757Z,13.28
2018-09-30T19:47:40.434Z,13.25
2018-09-30T19:50:08.223Z,13.43
2018-09-30T19:52:35.871Z,13.32
2018-09-30T19:55:03.543Z,13.69
2018-09-30T19:57:31.225Z,13.72
2018-09-30T19:59:58.816Z,13.80
2018-09-30T20:02:26.474Z,13.93
2018-09-30T20:04:54.101Z,13.78
2018-09-30T20:07:21.748Z,13.98
2018-09-30T20:09:49.447Z,13.94
2018-09-30T20:12:17.207Z,14.00
2018-09-30T20:14:45.072Z,13.60
2018-09-30T20:17:12.854Z,13.89
2018-09-30T20:19:40.568Z,13.71
2018-09-30T20:22:08.345Z,13.69
2018-09-30T20:24:36.073Z,13.53
2018-09-30T20:27:03.805Z,13.50
2018-09-30T20:29:31.627Z,13.63
2018-09-30T20:31:59.328Z,13.59
2018-09-30T20:34:27.211Z,13.32
2018-09-30T20:36:54.976Z,13.10
2018-09-30T20:39:22.595Z,13.09
2018-09-30T20:41:50.249Z,13.00
2018-09-30T20:44:17.936Z,12.94
2018-09-30T20:46:45.624Z,13.01
2018-09-30T20:49:13.326Z,12.94
2018-09-30T20:51:40.839Z,13.04
2018-09-30T20:54:08.444Z,13.04
2018-09-30T20:56:36.160Z,13.13
2018-09-30T20:59:03.962Z,13.08
2018-09-30T21:01:31.583Z,13.12
2018-09-30T21:03:59.193Z,13.03
2018-09-30T21:06:26.808Z,13.02
2018-09-30T21:08:54.473Z,12.84
2018-09-30T21:11:22.187Z,12.92
2018-09-30T21:13:49.812Z,12.94
2018-09-30T21:16:17.573Z,13.11
2018-09-30T21:18:45.325Z,13.04
2018-09-30T21:21:12.988Z,13.12
2018-09-30T21:23:40.740Z,13.14
2018-09-30T21:26:08.460Z,13.10
2018-09-30T21:28:36.068Z,13.24
2018-09-30T21:31:03.954Z,13.28
2018-09-30T21:33:31.576Z,13.23
2018-09-30T21:35:59.245Z,13.03
2018-09-30T21:38:26.907Z,13.06
2018-09-30T21:40:54.633Z,12.99
2018-09-30T21:43:22.364Z,13.14
2018-09-30T21:45:50.041Z,13.05
2018-09-30T21:48:17.625Z,13.13
2018-09-30T21:50:45.166Z,12.89
2018-09-30T21:53:12.806Z,12.85
2018-09-30T21:55:40.421Z,12.78
2018-09-30T21:58:07.944Z,12.85
2018-09-30T22:00:35.544Z,13.02
2018-09-30T22:03:03.130Z,13.00
2018-09-30T22:05:30.674Z,13.04
2018-09-30T22:07:58.237Z,12.96
2018-09-30T22:10:25.754Z,12.73
2018-09-30T22:12:53.335Z,12.80
2018-09-30T22:15:20.892Z,12.71
2018-09-30T22:17:48.433Z,12.71
2018-09-30T22:20:16.037Z,12.83
2018-09-30T22:22:43.552Z,12.75
2018-09-30T22:25:11.109Z,12.68
2018-09-30T22:27:38.629Z,12.54
2018-09-30T22:30:06.219Z,12.67
2018-09-30T22:32:33.985Z,12.70
2018-09-30T22:35:01.512Z,12.52
2018-09-30T22:37:29.081Z,12.61
2018-09-30T22:39:56.615Z,12.54
2018-09-30T22:42:24.230Z,12.68
2018-09-30T22:44:51.764Z,12.48
2018-09-30T22:47:19.356Z,12.65
2018-09-30T22:49:46.894Z,12.67
2018-09-30T22:52:14.419Z,12.73
2018-09-30T22:54:42.035Z,12.56
2018-09-30T22:57:09.562Z,12.76
2018-09-30T22:59:37.133Z,12.72
2018-09-30T23:02:04.685Z,12.64
2018-09-30T23:04:32.295Z,12.79
2018-09-30T23:06:59.860Z,12.45
2018-09-30T23:09:27.422Z,12.64
2018-09-30T23:11:54.948Z,12.73
2018-09-30T23:14:22.489Z,12.54
2018-09-30T23:16:50.072Z,12.64
2018-09-30T23:19:17.628Z,12.90
2018-09-30T23:21:45.179Z,12.73
2018-09-30T23:24:12.696Z,12.63
2018-09-30T23:26:40.287Z,12.50
2018-09-30T23:29:07.957Z,12.51
2018-09-30T23:31:35.515Z,12.64
2018-09-30T23:34:03.074Z,12.39
2018-09-30T23:36:30.596Z,12.33
2018-09-30T23:38:58.169Z,12.19
2018-09-30T23:41:25.782Z,12.00
2018-09-30T23:43:53.286Z,12.15
2018-09-30T23:46:20.827Z,12.27
2018-09-30T23:48:48.379Z,12.12
2018-09-30T23:51:15.958Z,12.19
2018-09-30T23:53:43.476Z,12.26
2018-09-30T23:56:11.159Z,12.24
2018-09-30T23:58:38.698Z,12.39
